sensor_id;sensor_type;location;lat;lon;timestamp;P1;durP1;ratioP1;P2;durP2;ratioP2
6661;SDS011;3367;48.714;8.994;2023-06-10T00:02:19;6.20;;;5.60;;
6661;SDS011;3367;48.714;8.994;2023-06-10T00:04:46;6.03;;;5.63;;
6661;SDS011;3367;48.714;8.994;2023-06-10T00:07:14;6.90;;;6.33;;
6661;SDS011;3367;48.714;8.994;2023-06-10T00:09:40;6.83;;;5.93;;
6661;SDS011;3367;48.714;8.994;2023-06-10T00:12:08;6.83;;;6.13;;
6661;SDS011;3367;48.714;8.994;2023-06-10T00:14:36;7.23;;;5.37;;
6661;SDS011;3367;48.714;8.994;2023-06-10T00:17:04;6.83;;;6.13;;
6661;SDS011;3367;48.714;8.994;2023-06-10T00:19:34;6.47;;;5.77;;
6661;SDS011;3367;48.714;8.994;2023-06-10T00:22:01;7.83;;;6.33;;
6661;SDS011;3367;48.714;8.994;2023-06-10T00:24:31;7.10;;;5.63;;
6661;SDS011;3367;48.714;8.994;2023-06-10T00:26:57;6.00;;;5.50;;
6661;SDS011;3367;48.714;8.994;2023-06-10T00:29:24;6.17;;;5.57;;
6661;SDS011;3367;48.714;8.994;2023-06-10T00:31:51;7.10;;;6.23;;
6661;SDS011;3367;48.714;8.994;2023-06-10T00:34:22;6.73;;;6.10;;
6661;SDS011;3367;48.714;8.994;2023-06-10T00:36:49;6.10;;;5.60;;
6661;SDS011;3367;48.714;8.994;2023-06-10T00:39:15;6.27;;;5.67;;
6661;SDS011;3367;48.714;8.994;2023-06-10T00:41:43;6.70;;;6.10;;
6661;SDS011;3367;48.714;8.994;2023-06-10T00:44:10;7.57;;;6.00;;
6661;SDS011;3367;48.714;8.994;2023-06-10T00:46:37;6.93;;;6.23;;
6661;SDS011;3367;48.714;8.994;2023-06-10T00:49:04;6.43;;;5.90;;
6661;SDS011;3367;48.714;8.994;2023-06-10T00:51:31;8.00;;;5.90;;
6661;SDS011;3367;48.714;8.994;2023-06-10T00:53:58;7.07;;;5.17;;
6661;SDS011;3367;48.714;8.994;2023-06-10T00:56:25;6.50;;;5.97;;
6661;SDS011;3367;48.714;8.994;2023-06-10T00:58:54;6.20;;;5.60;;
6661;SDS011;3367;48.714;8.994;2023-06-10T01:01:21;6.47;;;5.93;;
6661;SDS011;3367;48.714;8.994;2023-06-10T01:03:48;7.10;;;6.43;;
6661;SDS011;3367;48.714;8.994;2023-06-10T01:06:18;7.33;;;6.50;;
6661;SDS011;3367;48.714;8.994;2023-06-10T01:08:53;7.07;;;6.40;;
6661;SDS011;3367;48.714;8.994;2023-06-10T01:11:25;7.40;;;6.70;;
6661;SDS011;3367;48.714;8.994;2023-06-10T01:13:57;7.90;;;7.20;;
6661;SDS011;3367;48.714;8.994;2023-06-10T01:16:25;7.60;;;6.87;;
6661;SDS011;3367;48.714;8.994;2023-06-10T01:18:53;7.10;;;6.40;;
6661;SDS011;3367;48.714;8.994;2023-06-10T01:21:21;7.50;;;6.27;;
6661;SDS011;3367;48.714;8.994;2023-06-10T01:23:49;6.77;;;6.17;;
6661;SDS011;3367;48.714;8.994;2023-06-10T01:26:17;8.37;;;6.20;;
6661;SDS011;3367;48.714;8.994;2023-06-10T01:28:49;6.37;;;5.87;;
6661;SDS011;3367;48.714;8.994;2023-06-10T01:31:23;6.80;;;6.20;;
6661;SDS011;3367;48.714;8.994;2023-06-10T01:33:59;6.50;;;5.90;;
6661;SDS011;3367;48.714;8.994;2023-06-10T01:36:29;7.23;;;6.60;;
6661;SDS011;3367;48.714;8.994;2023-06-10T01:38:57;6.70;;;6.10;;
6661;SDS011;3367;48.714;8.994;2023-06-10T01:41:26;7.93;;;7.10;;
6661;SDS011;3367;48.714;8.994;2023-06-10T01:43:53;9.63;;;6.83;;
6661;SDS011;3367;48.714;8.994;2023-06-10T01:46:20;7.23;;;6.53;;
6661;SDS011;3367;48.714;8.994;2023-06-10T01:48:47;9.07;;;7.00;;
6661;SDS011;3367;48.714;8.994;2023-06-10T01:51:14;7.50;;;6.90;;
6661;SDS011;3367;48.714;8.994;2023-06-10T01:53:42;7.80;;;6.77;;
6661;SDS011;3367;48.714;8.994;2023-06-10T01:56:09;8.53;;;7.27;;
6661;SDS011;3367;48.714;8.994;2023-06-10T01:58:41;7.70;;;7.07;;
6661;SDS011;3367;48.714;8.994;2023-06-10T02:01:08;8.23;;;7.37;;
6661;SDS011;3367;48.714;8.994;2023-06-10T02:03:36;8.23;;;7.43;;
6661;SDS011;3367;48.714;8.994;2023-06-10T02:06:03;10.37;;;7.23;;
6661;SDS011;3367;48.714;8.994;2023-06-10T02:08:30;8.97;;;7.63;;
6661;SDS011;3367;48.714;8.994;2023-06-10T02:10:58;8.10;;;7.30;;
6661;SDS011;3367;48.714;8.994;2023-06-10T02:13:24;8.13;;;7.37;;
6661;SDS011;3367;48.714;8.994;2023-06-10T02:15:51;9.00;;;8.10;;
6661;SDS011;3367;48.714;8.994;2023-06-10T02:18:19;7.70;;;7.00;;
6661;SDS011;3367;48.714;8.994;2023-06-10T02:20:46;7.63;;;6.93;;
6661;SDS011;3367;48.714;8.994;2023-06-10T02:23:13;9.33;;;8.20;;
6661;SDS011;3367;48.714;8.994;2023-06-10T02:25:40;8.03;;;7.23;;
6661;SDS011;3367;48.714;8.994;2023-06-10T02:28:08;7.50;;;6.80;;
6661;SDS011;3367;48.714;8.994;2023-06-10T02:30:35;9.00;;;7.97;;
6661;SDS011;3367;48.714;8.994;2023-06-10T02:33:01;9.00;;;7.80;;
6661;SDS011;3367;48.714;8.994;2023-06-10T02:35:28;8.70;;;7.87;;
6661;SDS011;3367;48.714;8.994;2023-06-10T02:37:55;7.73;;;7.00;;
6661;SDS011;3367;48.714;8.994;2023-06-10T02:40:22;7.83;;;7.03;;
6661;SDS011;3367;48.714;8.994;2023-06-10T02:42:48;7.40;;;6.63;;
6661;SDS011;3367;48.714;8.994;2023-06-10T02:45:16;7.93;;;7.10;;
6661;SDS011;3367;48.714;8.994;2023-06-10T02:47:43;8.00;;;7.30;;
6661;SDS011;3367;48.714;8.994;2023-06-10T02:50:09;8.57;;;7.87;;
6661;SDS011;3367;48.714;8.994;2023-06-10T02:52:36;8.97;;;8.07;;
6661;SDS011;3367;48.714;8.994;2023-06-10T02:55:03;9.27;;;7.70;;
6661;SDS011;3367;48.714;8.994;2023-06-10T02:57:31;8.17;;;7.47;;
6661;SDS011;3367;48.714;8.994;2023-06-10T02:59:58;8.13;;;7.40;;
6661;SDS011;3367;48.714;8.994;2023-06-10T03:02:26;9.40;;;8.60;;
6661;SDS011;3367;48.714;8.994;2023-06-10T03:04:53;21.10;;;7.47;;
6661;SDS011;3367;48.714;8.994;2023-06-10T03:07:20;8.63;;;7.83;;
6661;SDS011;3367;48.714;8.994;2023-06-10T03:09:48;11.23;;;8.13;;
6661;SDS011;3367;48.714;8.994;2023-06-10T03:12:15;9.33;;;8.27;;
6661;SDS011;3367;48.714;8.994;2023-06-10T03:14:42;11.50;;;7.90;;
6661;SDS011;3367;48.714;8.994;2023-06-10T03:17:08;8.27;;;7.53;;
6661;SDS011;3367;48.714;8.994;2023-06-10T03:19:36;8.97;;;8.03;;
6661;SDS011;3367;48.714;8.994;2023-06-10T03:22:08;9.10;;;7.27;;
6661;SDS011;3367;48.714;8.994;2023-06-10T03:24:36;8.30;;;7.50;;
6661;SDS011;3367;48.714;8.994;2023-06-10T03:27:05;7.93;;;7.13;;
6661;SDS011;3367;48.714;8.994;2023-06-10T03:29:33;9.13;;;8.37;;
6661;SDS011;3367;48.714;8.994;2023-06-10T03:31:59;9.37;;;8.30;;
6661;SDS011;3367;48.714;8.994;2023-06-10T03:34:26;16.40;;;9.20;;
6661;SDS011;3367;48.714;8.994;2023-06-10T03:36:54;8.97;;;7.87;;
6661;SDS011;3367;48.714;8.994;2023-06-10T03:39:21;8.43;;;7.47;;
6661;SDS011;3367;48.714;8.994;2023-06-10T03:41:49;8.70;;;7.90;;
6661;SDS011;3367;48.714;8.994;2023-06-10T03:44:16;9.53;;;7.77;;
6661;SDS011;3367;48.714;8.994;2023-06-10T03:46:42;10.33;;;7.60;;
6661;SDS011;3367;48.714;8.994;2023-06-10T03:49:09;11.43;;;7.40;;
6661;SDS011;3367;48.714;8.994;2023-06-10T03:51:36;19.90;;;15.20;;
6661;SDS011;3367;48.714;8.994;2023-06-10T03:54:04;15.80;;;11.80;;
6661;SDS011;3367;48.714;8.994;2023-06-10T03:56:31;8.53;;;7.80;;
6661;SDS011;3367;48.714;8.994;2023-06-10T03:58:58;9.13;;;8.27;;
6661;SDS011;3367;48.714;8.994;2023-06-10T04:01:25;8.87;;;8.00;;
6661;SDS011;3367;48.714;8.994;2023-06-10T04:03:52;8.90;;;8.00;;
6661;SDS011;3367;48.714;8.994;2023-06-10T04:06:20;8.90;;;8.10;;
6661;SDS011;3367;48.714;8.994;2023-06-10T04:11:24;7.90;;;7.00;;
6661;SDS011;3367;48.714;8.994;2023-06-10T04:13:57;7.80;;;7.00;;
6661;SDS011;3367;48.714;8.994;2023-06-10T04:16:24;8.70;;;7.57;;
6661;SDS011;3367;48.714;8.994;2023-06-10T04:18:51;9.40;;;6.90;;
6661;SDS011;3367;48.714;8.994;2023-06-10T04:21:26;7.50;;;6.87;;
6661;SDS011;3367;48.714;8.994;2023-06-10T04:23:53;8.47;;;7.67;;
6661;SDS011;3367;48.714;8.994;2023-06-10T04:26:24;7.20;;;6.50;;
6661;SDS011;3367;48.714;8.994;2023-06-10T04:28:55;8.40;;;7.70;;
6661;SDS011;3367;48.714;8.994;2023-06-10T04:31:21;7.70;;;7.00;;
6661;SDS011;3367;48.714;8.994;2023-06-10T04:33:51;10.23;;;7.20;;
6661;SDS011;3367;48.714;8.994;2023-06-10T04:36:20;7.50;;;6.80;;
6661;SDS011;3367;48.714;8.994;2023-06-10T04:38:50;8.73;;;6.87;;
6661;SDS011;3367;48.714;8.994;2023-06-10T04:41:17;6.87;;;6.27;;
6661;SDS011;3367;48.714;8.994;2023-06-10T04:43:52;7.77;;;7.07;;
6661;SDS011;3367;48.714;8.994;2023-06-10T04:46:18;7.70;;;7.00;;
6661;SDS011;3367;48.714;8.994;2023-06-10T04:48:45;7.40;;;6.70;;
6661;SDS011;3367;48.714;8.994;2023-06-10T04:51:13;7.30;;;6.60;;
6661;SDS011;3367;48.714;8.994;2023-06-10T04:53:41;7.37;;;6.67;;
6661;SDS011;3367;48.714;8.994;2023-06-10T04:56:12;8.00;;;7.13;;
6661;SDS011;3367;48.714;8.994;2023-06-10T04:58:43;9.53;;;6.70;;
6661;SDS011;3367;48.714;8.994;2023-06-10T05:01:10;8.27;;;7.50;;
6661;SDS011;3367;48.714;8.994;2023-06-10T05:03:40;7.93;;;7.20;;
6661;SDS011;3367;48.714;8.994;2023-06-10T05:06:07;6.93;;;6.33;;
6661;SDS011;3367;48.714;8.994;2023-06-10T05:08:33;8.17;;;6.90;;
6661;SDS011;3367;48.714;8.994;2023-06-10T05:11:06;11.20;;;6.53;;
6661;SDS011;3367;48.714;8.994;2023-06-10T05:13:33;6.83;;;6.13;;
6661;SDS011;3367;48.714;8.994;2023-06-10T05:16:13;6.27;;;5.77;;
6661;SDS011;3367;48.714;8.994;2023-06-10T05:18:40;6.37;;;5.87;;
6661;SDS011;3367;48.714;8.994;2023-06-10T05:21:10;6.60;;;5.90;;
6661;SDS011;3367;48.714;8.994;2023-06-10T05:23:36;5.10;;;4.70;;
6661;SDS011;3367;48.714;8.994;2023-06-10T05:26:06;5.70;;;5.20;;
6661;SDS011;3367;48.714;8.994;2023-06-10T05:28:40;5.43;;;5.00;;
6661;SDS011;3367;48.714;8.994;2023-06-10T05:31:06;7.47;;;4.93;;
6661;SDS011;3367;48.714;8.994;2023-06-10T05:33:34;5.20;;;4.73;;
6661;SDS011;3367;48.714;8.994;2023-06-10T05:36:07;5.20;;;4.80;;
6661;SDS011;3367;48.714;8.994;2023-06-10T05:38:34;5.30;;;4.80;;
6661;SDS011;3367;48.714;8.994;2023-06-10T05:41:01;6.90;;;5.00;;
6661;SDS011;3367;48.714;8.994;2023-06-10T05:43:28;5.60;;;5.13;;
6661;SDS011;3367;48.714;8.994;2023-06-10T05:45:55;5.23;;;4.87;;
6661;SDS011;3367;48.714;8.994;2023-06-10T05:48:42;4.90;;;4.60;;
6661;SDS011;3367;48.714;8.994;2023-06-10T05:51:08;5.72;;;5.30;;
6661;SDS011;3367;48.714;8.994;2023-06-10T05:53:42;5.80;;;5.32;;
6661;SDS011;3367;48.714;8.994;2023-06-10T05:56:14;5.07;;;4.68;;
6661;SDS011;3367;48.714;8.994;2023-06-10T05:58:44;7.80;;;4.90;;
6661;SDS011;3367;48.714;8.994;2023-06-10T06:01:16;5.25;;;4.78;;
6661;SDS011;3367;48.714;8.994;2023-06-10T06:03:47;5.47;;;4.97;;
6661;SDS011;3367;48.714;8.994;2023-06-10T06:06:23;4.50;;;4.25;;
6661;SDS011;3367;48.714;8.994;2023-06-10T06:08:53;5.73;;;5.27;;
6661;SDS011;3367;48.714;8.994;2023-06-10T06:11:19;5.30;;;4.90;;
6661;SDS011;3367;48.714;8.994;2023-06-10T06:13:53;5.70;;;5.20;;
6661;SDS011;3367;48.714;8.994;2023-06-10T06:16:27;5.10;;;4.70;;
6661;SDS011;3367;48.714;8.994;2023-06-10T06:18:55;5.60;;;5.10;;
6661;SDS011;3367;48.714;8.994;2023-06-10T06:21:25;9.30;;;5.50;;
6661;SDS011;3367;48.714;8.994;2023-06-10T06:23:52;5.73;;;5.23;;
6661;SDS011;3367;48.714;8.994;2023-06-10T06:26:22;5.03;;;4.63;;
6661;SDS011;3367;48.714;8.994;2023-06-10T06:28:50;4.60;;;4.30;;
6661;SDS011;3367;48.714;8.994;2023-06-10T06:31:23;6.10;;;5.60;;
6661;SDS011;3367;48.714;8.994;2023-06-10T06:33:52;5.47;;;5.07;;
6661;SDS011;3367;48.714;8.994;2023-06-10T06:36:26;5.50;;;5.00;;
6661;SDS011;3367;48.714;8.994;2023-06-10T06:38:53;5.60;;;5.10;;
6661;SDS011;3367;48.714;8.994;2023-06-10T06:41:19;6.15;;;5.20;;
6661;SDS011;3367;48.714;8.994;2023-06-10T06:43:49;6.53;;;5.88;;
6661;SDS011;3367;48.714;8.994;2023-06-10T06:46:19;5.30;;;4.90;;
6661;SDS011;3367;48.714;8.994;2023-06-10T06:48:46;6.07;;;5.47;;
6661;SDS011;3367;48.714;8.994;2023-06-10T06:51:22;5.37;;;4.93;;
6661;SDS011;3367;48.714;8.994;2023-06-10T06:53:56;5.20;;;4.90;;
6661;SDS011;3367;48.714;8.994;2023-06-10T06:56:23;6.40;;;5.17;;
6661;SDS011;3367;48.714;8.994;2023-06-10T06:58:51;6.43;;;5.90;;
6661;SDS011;3367;48.714;8.994;2023-06-10T07:01:18;6.87;;;5.67;;
6661;SDS011;3367;48.714;8.994;2023-06-10T07:03:51;5.70;;;5.27;;
6661;SDS011;3367;48.714;8.994;2023-06-10T07:06:20;5.97;;;5.47;;
6661;SDS011;3367;48.714;8.994;2023-06-10T07:08:48;5.07;;;4.67;;
6661;SDS011;3367;48.714;8.994;2023-06-10T07:14:01;5.63;;;5.23;;
6661;SDS011;3367;48.714;8.994;2023-06-10T07:16:33;5.63;;;5.13;;
6661;SDS011;3367;48.714;8.994;2023-06-10T07:19:03;5.30;;;4.90;;
6661;SDS011;3367;48.714;8.994;2023-06-10T07:21:29;5.40;;;5.00;;
6661;SDS011;3367;48.714;8.994;2023-06-10T07:23:57;5.70;;;5.20;;
6661;SDS011;3367;48.714;8.994;2023-06-10T07:26:24;5.97;;;5.47;;
6661;SDS011;3367;48.714;8.994;2023-06-10T07:28:53;5.13;;;4.83;;
6661;SDS011;3367;48.714;8.994;2023-06-10T07:31:22;5.00;;;4.70;;
6661;SDS011;3367;48.714;8.994;2023-06-10T07:33:49;5.10;;;4.70;;
6661;SDS011;3367;48.714;8.994;2023-06-10T07:36:29;4.40;;;4.00;;
6661;SDS011;3367;48.714;8.994;2023-06-10T07:38:56;4.23;;;3.93;;
6661;SDS011;3367;48.714;8.994;2023-06-10T07:41:32;5.40;;;5.00;;
6661;SDS011;3367;48.714;8.994;2023-06-10T07:44:07;5.30;;;4.80;;
6661;SDS011;3367;48.714;8.994;2023-06-10T07:46:35;5.13;;;4.80;;
6661;SDS011;3367;48.714;8.994;2023-06-10T07:49:02;5.30;;;4.80;;
6661;SDS011;3367;48.714;8.994;2023-06-10T07:51:40;4.43;;;4.13;;
6661;SDS011;3367;48.714;8.994;2023-06-10T07:54:22;4.83;;;4.53;;
6661;SDS011;3367;48.714;8.994;2023-06-10T07:56:51;5.30;;;4.80;;
6661;SDS011;3367;48.714;8.994;2023-06-10T07:59:20;4.70;;;4.40;;
6661;SDS011;3367;48.714;8.994;2023-06-10T08:01:49;4.63;;;4.30;;
6661;SDS011;3367;48.714;8.994;2023-06-10T08:04:16;4.73;;;4.43;;
6661;SDS011;3367;48.714;8.994;2023-06-10T08:06:43;5.40;;;5.00;;
6661;SDS011;3367;48.714;8.994;2023-06-10T08:09:10;4.83;;;4.53;;
6661;SDS011;3367;48.714;8.994;2023-06-10T08:11:36;5.13;;;4.83;;
6661;SDS011;3367;48.714;8.994;2023-06-10T08:14:03;5.17;;;4.77;;
6661;SDS011;3367;48.714;8.994;2023-06-10T08:16:34;6.07;;;5.57;;
6661;SDS011;3367;48.714;8.994;2023-06-10T08:19:03;5.40;;;4.90;;
6661;SDS011;3367;48.714;8.994;2023-06-10T08:21:30;5.60;;;5.20;;
6661;SDS011;3367;48.714;8.994;2023-06-10T08:24:10;5.20;;;4.60;;
6661;SDS011;3367;48.714;8.994;2023-06-10T08:26:42;5.67;;;5.20;;
6661;SDS011;3367;48.714;8.994;2023-06-10T08:29:11;5.37;;;5.03;;
6661;SDS011;3367;48.714;8.994;2023-06-10T08:31:42;5.73;;;4.87;;
6661;SDS011;3367;48.714;8.994;2023-06-10T08:34:11;5.00;;;4.60;;
6661;SDS011;3367;48.714;8.994;2023-06-10T08:36:38;6.80;;;5.00;;
6661;SDS011;3367;48.714;8.994;2023-06-10T08:39:07;6.10;;;4.70;;
6661;SDS011;3367;48.714;8.994;2023-06-10T08:41:35;5.37;;;4.83;;
6661;SDS011;3367;48.714;8.994;2023-06-10T08:44:10;6.30;;;5.80;;
6661;SDS011;3367;48.714;8.994;2023-06-10T08:46:45;5.27;;;4.87;;
6661;SDS011;3367;48.714;8.994;2023-06-10T08:49:14;4.97;;;4.57;;
6661;SDS011;3367;48.714;8.994;2023-06-10T08:51:54;5.43;;;4.97;;
6661;SDS011;3367;48.714;8.994;2023-06-10T08:54:25;5.33;;;4.93;;
6661;SDS011;3367;48.714;8.994;2023-06-10T08:56:56;5.83;;;5.13;;
6661;SDS011;3367;48.714;8.994;2023-06-10T08:59:25;5.03;;;4.63;;
6661;SDS011;3367;48.714;8.994;2023-06-10T09:01:59;5.30;;;4.90;;
6661;SDS011;3367;48.714;8.994;2023-06-10T09:04:34;5.20;;;4.80;;
6661;SDS011;3367;48.714;8.994;2023-06-10T09:07:07;5.40;;;4.97;;
6661;SDS011;3367;48.714;8.994;2023-06-10T09:09:37;5.03;;;4.70;;
6661;SDS011;3367;48.714;8.994;2023-06-10T09:12:13;5.90;;;5.30;;
6661;SDS011;3367;48.714;8.994;2023-06-10T09:14:46;5.73;;;5.33;;
6661;SDS011;3367;48.714;8.994;2023-06-10T09:17:17;5.63;;;5.23;;
6661;SDS011;3367;48.714;8.994;2023-06-10T09:19:47;7.07;;;5.60;;
6661;SDS011;3367;48.714;8.994;2023-06-10T09:22:14;5.47;;;5.00;;
6661;SDS011;3367;48.714;8.994;2023-06-10T09:25:03;5.30;;;4.90;;
6661;SDS011;3367;48.714;8.994;2023-06-10T09:27:33;7.87;;;5.53;;
6661;SDS011;3367;48.714;8.994;2023-06-10T09:30:25;5.37;;;4.97;;
6661;SDS011;3367;48.714;8.994;2023-06-10T09:33:09;5.47;;;4.97;;
6661;SDS011;3367;48.714;8.994;2023-06-10T09:35:37;5.30;;;4.90;;
6661;SDS011;3367;48.714;8.994;2023-06-10T09:38:11;4.97;;;4.60;;
6661;SDS011;3367;48.714;8.994;2023-06-10T09:40:47;5.07;;;4.67;;
6661;SDS011;3367;48.714;8.994;2023-06-10T09:43:37;5.70;;;5.27;;
6661;SDS011;3367;48.714;8.994;2023-06-10T09:46:06;5.20;;;4.80;;
6661;SDS011;3367;48.714;8.994;2023-06-10T09:48:56;7.37;;;4.87;;
6661;SDS011;3367;48.714;8.994;2023-06-10T09:51:25;5.37;;;4.87;;
6661;SDS011;3367;48.714;8.994;2023-06-10T09:53:53;6.17;;;5.57;;
6661;SDS011;3367;48.714;8.994;2023-06-10T09:56:32;4.90;;;4.50;;
6661;SDS011;3367;48.714;8.994;2023-06-10T09:58:59;4.97;;;4.57;;
6661;SDS011;3367;48.714;8.994;2023-06-10T10:01:26;5.47;;;5.07;;
6661;SDS011;3367;48.714;8.994;2023-06-10T10:03:53;4.80;;;4.50;;
6661;SDS011;3367;48.714;8.994;2023-06-10T10:06:32;5.40;;;5.00;;
6661;SDS011;3367;48.714;8.994;2023-06-10T10:09:03;5.17;;;4.73;;
6661;SDS011;3367;48.714;8.994;2023-06-10T10:11:30;5.13;;;4.53;;
6661;SDS011;3367;48.714;8.994;2023-06-10T10:14:01;4.50;;;4.20;;
6661;SDS011;3367;48.714;8.994;2023-06-10T10:16:33;5.40;;;4.90;;
6661;SDS011;3367;48.714;8.994;2023-06-10T10:19:04;5.60;;;5.20;;
6661;SDS011;3367;48.714;8.994;2023-06-10T10:21:44;4.60;;;4.20;;
6661;SDS011;3367;48.714;8.994;2023-06-10T10:24:23;5.03;;;4.63;;
6661;SDS011;3367;48.714;8.994;2023-06-10T10:26:57;4.97;;;4.53;;
6661;SDS011;3367;48.714;8.994;2023-06-10T10:29:28;4.73;;;4.43;;
6661;SDS011;3367;48.714;8.994;2023-06-10T10:31:57;5.27;;;4.87;;
6661;SDS011;3367;48.714;8.994;2023-06-10T10:34:29;4.40;;;4.10;;
6661;SDS011;3367;48.714;8.994;2023-06-10T10:37:05;5.10;;;4.10;;
6661;SDS011;3367;48.714;8.994;2023-06-10T10:39:35;4.93;;;4.53;;
6661;SDS011;3367;48.714;8.994;2023-06-10T10:42:08;4.83;;;4.40;;
6661;SDS011;3367;48.714;8.994;2023-06-10T10:44:36;4.80;;;4.40;;
6661;SDS011;3367;48.714;8.994;2023-06-10T10:47:09;5.33;;;4.93;;
6661;SDS011;3367;48.714;8.994;2023-06-10T10:49:37;5.53;;;5.10;;
6661;SDS011;3367;48.714;8.994;2023-06-10T10:52:12;5.50;;;5.00;;
6661;SDS011;3367;48.714;8.994;2023-06-10T10:54:43;5.10;;;4.60;;
6661;SDS011;3367;48.714;8.994;2023-06-10T10:57:15;5.83;;;4.87;;
6661;SDS011;3367;48.714;8.994;2023-06-10T10:59:52;4.70;;;4.30;;
6661;SDS011;3367;48.714;8.994;2023-06-10T11:02:35;4.87;;;4.23;;
6661;SDS011;3367;48.714;8.994;2023-06-10T11:05:09;5.03;;;4.37;;
6661;SDS011;3367;48.714;8.994;2023-06-10T11:07:41;5.20;;;4.57;;
6661;SDS011;3367;48.714;8.994;2023-06-10T11:10:28;10.70;;;4.80;;
6661;SDS011;3367;48.714;8.994;2023-06-10T11:12:56;4.83;;;4.47;;
6661;SDS011;3367;48.714;8.994;2023-06-10T11:15:27;5.00;;;4.60;;
6661;SDS011;3367;48.714;8.994;2023-06-10T11:18:08;4.83;;;4.50;;
6661;SDS011;3367;48.714;8.994;2023-06-10T11:20:55;5.20;;;4.60;;
6661;SDS011;3367;48.714;8.994;2023-06-10T11:23:35;4.50;;;4.20;;
6661;SDS011;3367;48.714;8.994;2023-06-10T11:26:16;7.30;;;4.40;;
6661;SDS011;3367;48.714;8.994;2023-06-10T11:29:01;4.53;;;4.20;;
6661;SDS011;3367;48.714;8.994;2023-06-10T11:31:38;5.10;;;4.73;;
6661;SDS011;3367;48.714;8.994;2023-06-10T11:34:20;4.90;;;4.50;;
6661;SDS011;3367;48.714;8.994;2023-06-10T11:36:49;4.77;;;4.47;;
6661;SDS011;3367;48.714;8.994;2023-06-10T11:39:21;4.90;;;4.40;;
6661;SDS011;3367;48.714;8.994;2023-06-10T11:41:54;4.80;;;4.60;;
6661;SDS011;3367;48.714;8.994;2023-06-10T11:44:25;5.03;;;4.63;;
6661;SDS011;3367;48.714;8.994;2023-06-10T11:46:55;6.10;;;5.10;;
6661;SDS011;3367;48.714;8.994;2023-06-10T11:49:25;5.17;;;4.70;;
6661;SDS011;3367;48.714;8.994;2023-06-10T11:51:52;5.63;;;5.23;;
6661;SDS011;3367;48.714;8.994;2023-06-10T11:54:26;5.43;;;5.03;;
6661;SDS011;3367;48.714;8.994;2023-06-10T11:56:57;4.80;;;4.47;;
6661;SDS011;3367;48.714;8.994;2023-06-10T11:59:26;5.40;;;5.00;;
6661;SDS011;3367;48.714;8.994;2023-06-10T12:01:53;5.23;;;4.77;;
6661;SDS011;3367;48.714;8.994;2023-06-10T12:04:23;5.13;;;4.73;;
6661;SDS011;3367;48.714;8.994;2023-06-10T12:06:53;4.80;;;4.40;;
6661;SDS011;3367;48.714;8.994;2023-06-10T12:09:21;5.33;;;4.93;;
6661;SDS011;3367;48.714;8.994;2023-06-10T12:11:57;5.07;;;4.70;;
6661;SDS011;3367;48.714;8.994;2023-06-10T12:17:20;5.30;;;4.90;;
6661;SDS011;3367;48.714;8.994;2023-06-10T12:19:51;5.00;;;4.60;;
6661;SDS011;3367;48.714;8.994;2023-06-10T12:22:23;4.83;;;4.53;;
6661;SDS011;3367;48.714;8.994;2023-06-10T12:24:57;5.00;;;4.60;;
6661;SDS011;3367;48.714;8.994;2023-06-10T12:27:30;5.23;;;4.73;;
6661;SDS011;3367;48.714;8.994;2023-06-10T12:30:02;4.93;;;4.53;;
6661;SDS011;3367;48.714;8.994;2023-06-10T12:32:40;5.20;;;4.80;;
6661;SDS011;3367;48.714;8.994;2023-06-10T12:35:08;4.73;;;4.43;;
6661;SDS011;3367;48.714;8.994;2023-06-10T12:37:38;4.70;;;4.40;;
6661;SDS011;3367;48.714;8.994;2023-06-10T12:40:06;5.27;;;4.77;;
6661;SDS011;3367;48.714;8.994;2023-06-10T12:42:36;5.00;;;4.50;;
6661;SDS011;3367;48.714;8.994;2023-06-10T12:45:03;4.40;;;4.13;;
6661;SDS011;3367;48.714;8.994;2023-06-10T12:47:34;5.23;;;4.73;;
6661;SDS011;3367;48.714;8.994;2023-06-10T12:50:04;5.90;;;5.20;;
6661;SDS011;3367;48.714;8.994;2023-06-10T12:52:31;4.70;;;4.30;;
6661;SDS011;3367;48.714;8.994;2023-06-10T12:54:58;4.97;;;4.57;;
6661;SDS011;3367;48.714;8.994;2023-06-10T12:57:25;4.80;;;4.50;;
6661;SDS011;3367;48.714;8.994;2023-06-10T12:59:55;4.90;;;4.50;;
6661;SDS011;3367;48.714;8.994;2023-06-10T13:02:28;5.33;;;4.93;;
6661;SDS011;3367;48.714;8.994;2023-06-10T13:04:54;5.10;;;4.70;;
6661;SDS011;3367;48.714;8.994;2023-06-10T13:07:21;4.87;;;4.57;;
6661;SDS011;3367;48.714;8.994;2023-06-10T13:09:48;4.90;;;4.50;;
6661;SDS011;3367;48.714;8.994;2023-06-10T13:12:15;5.43;;;4.97;;
6661;SDS011;3367;48.714;8.994;2023-06-10T13:14:43;4.33;;;3.93;;
6661;SDS011;3367;48.714;8.994;2023-06-10T13:17:11;4.43;;;4.10;;
6661;SDS011;3367;48.714;8.994;2023-06-10T13:19:38;5.60;;;4.70;;
6661;SDS011;3367;48.714;8.994;2023-06-10T13:22:05;4.60;;;4.30;;
6661;SDS011;3367;48.714;8.994;2023-06-10T13:24:32;5.00;;;4.60;;
6661;SDS011;3367;48.714;8.994;2023-06-10T13:26:58;4.37;;;3.97;;
6661;SDS011;3367;48.714;8.994;2023-06-10T13:29:25;4.33;;;3.93;;
6661;SDS011;3367;48.714;8.994;2023-06-10T13:31:52;6.73;;;4.80;;
6661;SDS011;3367;48.714;8.994;2023-06-10T13:34:20;5.97;;;4.37;;
6661;SDS011;3367;48.714;8.994;2023-06-10T13:36:46;8.07;;;4.50;;
6661;SDS011;3367;48.714;8.994;2023-06-10T13:39:13;5.60;;;5.10;;
6661;SDS011;3367;48.714;8.994;2023-06-10T13:41:40;5.10;;;4.80;;
6661;SDS011;3367;48.714;8.994;2023-06-10T13:44:07;4.43;;;4.23;;
6661;SDS011;3367;48.714;8.994;2023-06-10T13:46:34;5.10;;;4.70;;
6661;SDS011;3367;48.714;8.994;2023-06-10T13:49:00;4.43;;;4.03;;
6661;SDS011;3367;48.714;8.994;2023-06-10T13:51:28;4.10;;;3.90;;
6661;SDS011;3367;48.714;8.994;2023-06-10T13:53:55;4.90;;;4.60;;
6661;SDS011;3367;48.714;8.994;2023-06-10T13:56:22;5.00;;;4.30;;
6661;SDS011;3367;48.714;8.994;2023-06-10T13:58:48;5.13;;;4.73;;
6661;SDS011;3367;48.714;8.994;2023-06-10T14:01:15;5.00;;;4.60;;
6661;SDS011;3367;48.714;8.994;2023-06-10T14:03:42;3.80;;;3.47;;
6661;SDS011;3367;48.714;8.994;2023-06-10T14:06:08;3.83;;;3.57;;
6661;SDS011;3367;48.714;8.994;2023-06-10T14:08:39;4.60;;;4.30;;
6661;SDS011;3367;48.714;8.994;2023-06-10T14:11:06;4.23;;;3.93;;
6661;SDS011;3367;48.714;8.994;2023-06-10T14:13:33;4.13;;;3.90;;
6661;SDS011;3367;48.714;8.994;2023-06-10T14:16:00;5.10;;;4.27;;
6661;SDS011;3367;48.714;8.994;2023-06-10T14:18:27;4.67;;;4.37;;
6661;SDS011;3367;48.714;8.994;2023-06-10T14:20:54;4.40;;;4.10;;
6661;SDS011;3367;48.714;8.994;2023-06-10T14:23:21;4.60;;;4.30;;
6661;SDS011;3367;48.714;8.994;2023-06-10T14:25:50;4.67;;;4.27;;
6661;SDS011;3367;48.714;8.994;2023-06-10T14:28:17;4.20;;;4.00;;
6661;SDS011;3367;48.714;8.994;2023-06-10T14:30:44;4.57;;;4.20;;
6661;SDS011;3367;48.714;8.994;2023-06-10T14:33:11;4.10;;;3.80;;
6661;SDS011;3367;48.714;8.994;2023-06-10T14:35:37;4.50;;;4.10;;
6661;SDS011;3367;48.714;8.994;2023-06-10T14:38:04;6.40;;;4.20;;
6661;SDS011;3367;48.714;8.994;2023-06-10T14:40:31;4.20;;;3.80;;
6661;SDS011;3367;48.714;8.994;2023-06-10T14:42:59;6.77;;;4.70;;
6661;SDS011;3367;48.714;8.994;2023-06-10T14:45:26;5.67;;;5.17;;
6661;SDS011;3367;48.714;8.994;2023-06-10T14:47:53;4.97;;;4.50;;
6661;SDS011;3367;48.714;8.994;2023-06-10T14:50:19;4.00;;;3.70;;
6661;SDS011;3367;48.714;8.994;2023-06-10T14:52:46;3.40;;;3.20;;
6661;SDS011;3367;48.714;8.994;2023-06-10T14:55:13;4.00;;;3.70;;
6661;SDS011;3367;48.714;8.994;2023-06-10T14:57:41;3.80;;;3.60;;
6661;SDS011;3367;48.714;8.994;2023-06-10T15:00:10;4.33;;;4.03;;
6661;SDS011;3367;48.714;8.994;2023-06-10T15:02:40;4.80;;;4.50;;
6661;SDS011;3367;48.714;8.994;2023-06-10T15:05:07;4.30;;;4.00;;
6661;SDS011;3367;48.714;8.994;2023-06-10T15:07:34;4.87;;;4.47;;
6661;SDS011;3367;48.714;8.994;2023-06-10T15:10:00;4.13;;;3.83;;
6661;SDS011;3367;48.714;8.994;2023-06-10T15:12:27;4.37;;;4.07;;
6661;SDS011;3367;48.714;8.994;2023-06-10T15:14:54;4.97;;;4.57;;
6661;SDS011;3367;48.714;8.994;2023-06-10T15:17:23;5.00;;;4.57;;
6661;SDS011;3367;48.714;8.994;2023-06-10T15:19:50;4.50;;;4.20;;
6661;SDS011;3367;48.714;8.994;2023-06-10T15:22:17;4.73;;;4.40;;
6661;SDS011;3367;48.714;8.994;2023-06-10T15:24:43;4.13;;;3.73;;
6661;SDS011;3367;48.714;8.994;2023-06-10T15:27:10;5.00;;;4.50;;
6661;SDS011;3367;48.714;8.994;2023-06-10T15:29:37;4.73;;;4.33;;
6661;SDS011;3367;48.714;8.994;2023-06-10T15:32:04;5.13;;;4.77;;
6661;SDS011;3367;48.714;8.994;2023-06-10T15:34:32;4.93;;;4.40;;
6661;SDS011;3367;48.714;8.994;2023-06-10T15:36:59;4.73;;;4.43;;
6661;SDS011;3367;48.714;8.994;2023-06-10T15:39:26;5.37;;;4.37;;